Terminal Aerodrome Forecast
Issued by NWS

Home | Current Version | Previous Version | Text Only | Print | Product List | Glossary On
Versions: 1 2 3 4 5 6 7 8 9 10 11 12 13
164
FTUS42 TJSJ 141130
TAFNCM
TAF
TNCM 141130Z 1412/1512 15008KT P6SM VCSH SCT019 BKN040
     FM141300 11010KT P6SM VCSH SCT025 SCT030
     FM142300 10010KT P6SM FEW020=

USA.gov is the U.S. government's official web portal to all federal, state and local government web resources and services.